createdAt,value
2019-04-21T00:05:16.488Z,17.60
2019-04-21T00:10:28.432Z,17.60
2019-04-21T00:15:24.364Z,17.60
2019-04-21T00:20:30.904Z,17.60
2019-04-21T00:25:42.691Z,17.60
2019-04-21T00:30:58.115Z,17.50
2019-04-21T00:35:47.734Z,17.50
2019-04-21T00:41:05.483Z,17.50
2019-04-21T00:45:59.958Z,17.40
2019-04-21T00:51:51.080Z,17.40
2019-04-21T00:56:30.706Z,17.40
2019-04-21T01:01:32.819Z,17.30
2019-04-21T01:06:43.152Z,17.30
2019-04-21T01:11:44.466Z,17.20
2019-04-21T01:16:51.458Z,17.20
2019-04-21T01:21:33.904Z,17.10
2019-04-21T01:26:48.209Z,17.10
2019-04-21T01:32:10.468Z,17.00
2019-04-21T01:37:03.904Z,17.00
2019-04-21T01:42:15.743Z,17.00
2019-04-21T01:47:17.382Z,17.00
2019-04-21T01:52:38.429Z,17.00
2019-04-21T01:57:52.718Z,16.80
2019-04-21T02:03:16.520Z,16.60
2019-04-21T02:08:05.419Z,16.40
2019-04-21T02:13:12.092Z,16.00
2019-04-21T02:18:22.092Z,15.90
2019-04-21T02:28:42.362Z,15.90
2019-04-21T02:34:00.658Z,16.00
2019-04-21T02:39:08.384Z,16.10
2019-04-21T02:44:10.461Z,16.10
2019-04-21T02:49:25.650Z,16.10
2019-04-21T02:54:49.620Z,16.20
2019-04-21T03:05:21.293Z,16.00
2019-04-21T03:10:22.294Z,15.50
2019-04-21T03:15:31.525Z,15.20
2019-04-21T03:20:35.342Z,15.20
2019-04-21T03:31:05.977Z,14.90
2019-04-21T03:40:57.786Z,14.30
2019-04-21T03:46:28.569Z,14.10
2019-04-21T03:51:12.479Z,14.40
2019-04-21T03:56:27.035Z,14.20
2019-04-21T04:01:48.691Z,14.20
2019-04-21T04:12:09.094Z,14.10
2019-04-21T04:22:22.858Z,13.80
2019-04-21T04:27:47.036Z,13.80
2019-04-21T04:32:40.140Z,13.80
2019-04-21T04:37:36.234Z,13.70
2019-04-21T04:47:59.135Z,13.50
2019-04-21T04:53:01.567Z,13.60
2019-04-21T04:58:16.083Z,13.40
2019-04-21T05:03:29.621Z,13.40
2019-04-21T05:08:39.460Z,13.30
2019-04-21T05:13:37.546Z,13.20
2019-04-21T05:18:47.072Z,13.20
2019-04-21T05:23:37.712Z,13.40
2019-04-21T05:28:37.637Z,13.30
2019-04-21T05:33:59.043Z,13.30
2019-04-21T05:39:14.579Z,13.30
2019-04-21T05:44:35.553Z,13.40
2019-04-21T05:49:41.489Z,13.50
2019-04-21T05:54:57.877Z,13.40
2019-04-21T05:59:53.708Z,13.60
2019-04-21T06:10:12.297Z,13.80
2019-04-21T06:15:22.760Z,13.80
2019-04-21T06:20:27.140Z,14.00
2019-04-21T06:30:53.028Z,14.20
2019-04-21T06:36:32.026Z,14.30
2019-04-21T06:41:29.750Z,14.40
2019-04-21T06:46:35.507Z,14.70
2019-04-21T06:51:33.758Z,15.00
2019-04-21T06:56:48.042Z,15.40
2019-04-21T07:01:48.804Z,15.90
2019-04-21T07:06:56.225Z,16.30
2019-04-21T07:11:55.096Z,16.80
2019-04-21T07:17:11.607Z,17.10
2019-04-21T07:22:14.590Z,17.40
2019-04-21T07:27:16.270Z,17.80
2019-04-21T07:32:20.985Z,18.00
2019-04-21T07:37:29.989Z,18.30
2019-04-21T07:42:32.498Z,19.00
2019-04-21T07:47:46.338Z,19.30
2019-04-21T07:53:07.031Z,19.80
2019-04-21T07:58:02.684Z,20.00
2019-04-21T08:03:15.941Z,20.10
2019-04-21T08:08:52.507Z,20.50
2019-04-21T08:14:03.532Z,21.00
2019-04-21T08:19:15.591Z,21.30
2019-04-21T08:24:18.213Z,21.70
2019-04-21T08:29:33.080Z,21.90
2019-04-21T08:34:35.916Z,22.40
2019-04-21T08:39:49.380Z,22.60
2019-04-21T08:44:47.914Z,22.90
2019-04-21T08:49:55.360Z,23.20
2019-04-21T08:55:10.905Z,23.50
2019-04-21T09:00:26.564Z,23.70
2019-04-21T09:05:31.255Z,24.00
2019-04-21T09:10:35.637Z,24.20
2019-04-21T09:15:46.239Z,24.40
2019-04-21T09:20:52.602Z,24.70
2019-04-21T09:26:02.163Z,24.90
2019-04-21T09:30:52.473Z,25.10
2019-04-21T09:35:58.779Z,25.30
2019-04-21T09:40:57.875Z,25.50
2019-04-21T09:46:02.203Z,25.30
2019-04-21T09:51:06.555Z,25.70
2019-04-21T09:56:16.045Z,25.90
2019-04-21T10:01:25.397Z,26.20
2019-04-21T10:06:23.777Z,26.40
2019-04-21T10:11:28.721Z,26.60
2019-04-21T10:17:13.174Z,26.80
2019-04-21T10:22:19.033Z,26.90
2019-04-21T10:27:25.440Z,27.20
2019-04-21T10:32:30.675Z,27.30
2019-04-21T10:37:47.277Z,27.40
2019-04-21T10:42:43.622Z,27.40
2019-04-21T10:47:49.346Z,27.50
2019-04-21T10:53:18.884Z,27.70
2019-04-21T10:58:29.924Z,27.70
2019-04-21T11:03:44.641Z,27.60
2019-04-21T11:08:53.858Z,27.70
2019-04-21T11:13:57.315Z,28.00
2019-04-21T11:19:02.436Z,27.80
2019-04-21T11:24:08.195Z,28.30
2019-04-21T11:29:14.862Z,28.40
2019-04-21T11:34:21.096Z,28.50
2019-04-21T11:39:42.175Z,28.40
2019-04-21T11:44:39.490Z,28.50
2019-04-21T11:49:45.637Z,28.60
2019-04-21T11:54:51.034Z,28.50
2019-04-21T11:59:57.576Z,28.70
2019-04-21T12:05:03.711Z,28.80
2019-04-21T12:10:09.241Z,28.80
2019-04-21T12:15:14.639Z,28.90
2019-04-21T12:20:20.887Z,28.80
2019-04-21T12:25:29.269Z,28.90
2019-04-21T12:30:35.642Z,29.00
2019-04-21T12:35:41.847Z,29.00
2019-04-21T12:40:46.695Z,28.90
2019-04-21T12:45:52.009Z,28.90
2019-04-21T12:50:57.533Z,29.10
2019-04-21T12:56:02.134Z,29.10
2019-04-21T13:01:07.145Z,29.00
2019-04-21T13:06:11.747Z,29.00
2019-04-21T13:11:17.119Z,29.10
2019-04-21T13:16:21.202Z,29.00
2019-04-21T13:21:31.995Z,28.90
2019-04-21T13:26:43.914Z,28.70
2019-04-21T13:31:44.528Z,28.90
2019-04-21T13:36:49.819Z,29.00
2019-04-21T13:42:06.348Z,29.10
2019-04-21T13:47:02.734Z,28.90
2019-04-21T13:52:08.842Z,28.90
2019-04-21T13:57:23.432Z,28.90
2019-04-21T14:02:28.960Z,29.10
2019-04-21T14:07:34.406Z,28.90
2019-04-21T14:12:40.486Z,29.10
2019-04-21T14:17:44.987Z,29.20
2019-04-21T14:22:49.691Z,29.10
2019-04-21T14:27:56.477Z,29.00
2019-04-21T14:33:04.375Z,28.80
2019-04-21T14:38:10.859Z,28.90
2019-04-21T14:43:18.502Z,28.80
2019-04-21T14:48:45.464Z,28.90
2019-04-21T14:54:27.273Z,29.10
2019-04-21T14:59:33.251Z,29.00
2019-04-21T15:04:39.804Z,29.10
2019-04-21T15:09:46.473Z,29.10
2019-04-21T15:14:53.692Z,29.00
2019-04-21T15:20:07.900Z,29.00
2019-04-21T15:25:08.003Z,28.80
2019-04-21T15:30:36.555Z,28.80
2019-04-21T15:35:42.838Z,28.90
2019-04-21T15:40:53.712Z,28.80
2019-04-21T15:45:55.335Z,28.50
2019-04-21T15:51:04.328Z,28.40
2019-04-21T15:56:12.980Z,28.20
2019-04-21T16:01:32.447Z,28.40
2019-04-21T16:06:37.372Z,28.30
2019-04-21T16:11:42.245Z,28.20
2019-04-21T16:16:47.435Z,28.10
2019-04-21T16:21:52.835Z,28.00
2019-04-21T16:27:01.695Z,28.10
2019-04-21T16:32:04.909Z,28.10
2019-04-21T16:37:09.811Z,27.90
2019-04-21T16:42:14.269Z,27.50
2019-04-21T16:47:21.389Z,27.50
2019-04-21T16:52:34.168Z,27.40
2019-04-21T16:58:04.279Z,27.20
2019-04-21T17:03:02.319Z,27.10
2019-04-21T17:08:11.107Z,26.90
2019-04-21T17:13:18.332Z,26.80
2019-04-21T17:18:40.655Z,26.70
2019-04-21T17:23:31.445Z,26.50
2019-04-21T17:28:38.526Z,26.30
2019-04-21T17:33:43.872Z,26.20
2019-04-21T17:38:50.453Z,25.90
2019-04-21T17:43:56.213Z,25.70
2019-04-21T17:49:03.065Z,25.60
2019-04-21T17:54:20.890Z,25.30
2019-04-21T17:59:51.222Z,25.10
2019-04-21T18:04:48.973Z,24.90
2019-04-21T18:10:01.656Z,24.50
2019-04-21T18:14:56.743Z,24.20
2019-04-21T18:20:02.073Z,23.80
2019-04-21T18:25:28.180Z,23.50
2019-04-21T18:30:58.046Z,23.20
2019-04-21T18:36:45.496Z,22.90
2019-04-21T18:42:09.414Z,22.50
2019-04-21T18:53:03.205Z,22.00
2019-04-21T18:57:56.653Z,21.60
2019-04-21T19:03:02.012Z,21.40
2019-04-21T19:08:26.529Z,21.30
2019-04-21T19:14:17.380Z,21.00
2019-04-21T19:19:37.958Z,20.70
2019-04-21T19:24:42.376Z,20.40
2019-04-21T19:34:26.758Z,19.90
2019-04-21T19:39:42.729Z,19.70
2019-04-21T19:44:53.802Z,19.80
2019-04-21T19:50:11.211Z,19.60
2019-04-21T19:54:58.630Z,19.50
2019-04-21T20:00:07.703Z,19.60
2019-04-21T20:05:24.357Z,19.50
2019-04-21T20:10:39.765Z,19.40
2019-04-21T20:15:50.969Z,19.30
2019-04-21T20:20:39.670Z,19.30
2019-04-21T20:25:49.789Z,19.20
2019-04-21T20:31:14.790Z,19.00
2019-04-21T20:36:23.901Z,19.00
2019-04-21T20:41:24.157Z,18.80
2019-04-21T20:46:32.675Z,18.70
2019-04-21T20:51:37.643Z,18.60
2019-04-21T20:56:45.149Z,18.70
2019-04-21T21:01:49.466Z,18.70
2019-04-21T21:06:54.968Z,18.60
2019-04-21T21:12:15.989Z,18.60
2019-04-21T21:17:13.425Z,18.60
2019-04-21T21:22:08.393Z,18.50
2019-04-21T21:27:19.557Z,18.40
2019-04-21T21:32:27.325Z,18.40
2019-04-21T21:37:36.281Z,18.40
2019-04-21T21:42:28.248Z,18.40
2019-04-21T21:47:50.921Z,18.40
2019-04-21T21:52:47.809Z,18.30
2019-04-21T21:57:49.823Z,18.30
2019-04-21T22:02:54.897Z,18.20
2019-04-21T22:07:58.633Z,18.20
2019-04-21T22:13:09.617Z,18.10
2019-04-21T22:18:30.072Z,18.10
2019-04-21T22:23:30.524Z,18.10
2019-04-21T22:28:27.555Z,18.00
2019-04-21T22:33:41.966Z,18.00
2019-04-21T22:38:52.153Z,18.10
2019-04-21T22:43:51.642Z,18.00
2019-04-21T22:48:59.527Z,18.00
2019-04-21T22:54:01.956Z,18.00
2019-04-21T22:59:09.665Z,17.90
2019-04-21T23:04:14.458Z,18.00
2019-04-21T23:09:22.542Z,18.00
2019-04-21T23:14:28.077Z,17.90
2019-04-21T23:19:47.766Z,17.90
2019-04-21T23:25:03.441Z,17.90
2019-04-21T23:30:13.539Z,17.90
2019-04-21T23:34:56.149Z,18.00
2019-04-21T23:40:10.678Z,17.90
2019-04-21T23:45:09.215Z,18.00
2019-04-21T23:50:24.740Z,17.90
2019-04-21T23:55:23.225Z,17.80
